Time;durP1;ratioP1;P1;durP2;ratioP2;P2;SDS_P1;SDS_P2;PMS_P1;PMS_P2;Temp;Humidity;BMP_temperature;BMP_pressure;BME280_temperature;BME280_humidity;BME280_pressure;Samples;Min_cycle;Max_cycle;Signal;HPM_P1;HPM_P2
2022/09/26 00:01:07;;;;;;;7.25;1.77;;;12.10;99.90;;;;;;6208123;23;20092;-70
2022/09/26 00:03:34;;;;;;;6.80;1.73;;;12.10;99.90;;;;;;6210293;23;20028;-69
2022/09/26 00:06:02;;;;;;;10.40;2.10;;;12.10;99.90;;;;;;6182766;23;20091;-70
2022/09/26 00:08:28;;;;;;;6.25;2.00;;;12.10;99.90;;;;;;6209561;23;20032;-69
2022/09/26 00:10:58;;;;;;;10.75;2.60;;;12.00;99.90;;;;;;6210043;23;20044;-70
2022/09/26 00:13:28;;;;;;;6.70;1.83;;;12.10;99.90;;;;;;6209493;23;20445;-71
2022/09/26 00:15:55;;;;;;;4.97;2.03;;;12.10;99.90;;;;;;6208940;23;20008;-71
2022/09/26 00:18:22;;;;;;;3.60;1.60;;;12.10;99.90;;;;;;6182658;23;20024;-69
2022/09/26 00:20:47;;;;;;;5.55;1.50;;;12.00;99.90;;;;;;6209522;23;20044;-69
2022/09/26 00:23:14;;;;;;;4.38;1.30;;;12.00;99.90;;;;;;6182338;23;20444;-70
2022/09/26 00:25:50;;;;;;;6.65;1.55;;;12.10;99.90;;;;;;6182970;23;20074;-70
2022/09/26 00:28:17;;;;;;;7.75;1.77;;;12.10;99.90;;;;;;6209203;23;20047;-70
2022/09/26 00:30:43;;;;;;;5.80;1.80;;;12.10;99.90;;;;;;6182017;23;20087;-70
2022/09/26 00:33:10;;;;;;;5.05;1.48;;;12.10;99.90;;;;;;6209019;23;20083;-69
2022/09/26 00:35:36;;;;;;;8.00;1.50;;;12.10;99.90;;;;;;6183766;23;20300;-70
2022/09/26 00:38:02;;;;;;;4.50;1.33;;;12.10;99.90;;;;;;6209250;23;20032;-70
2022/09/26 00:40:29;;;;;;;6.50;1.80;;;12.10;99.90;;;;;;6209872;23;20054;-70
2022/09/26 00:42:55;;;;;;;5.80;1.40;;;12.10;99.90;;;;;;6182543;23;20009;-70
2022/09/26 00:45:23;;;;;;;5.13;1.98;;;12.10;99.90;;;;;;6208266;23;20024;-70
2022/09/26 00:48:02;;;;;;;6.28;1.50;;;12.10;99.90;;;;;;6182723;23;20087;-69
2022/09/26 00:50:40;;;;;;;6.20;1.40;;;12.10;99.90;;;;;;6182410;23;20017;-70
2022/09/26 00:53:16;;;;;;;4.25;1.38;;;12.10;99.90;;;;;;6208951;23;20024;-70
2022/09/26 00:55:47;;;;;;;5.57;1.42;;;12.10;99.90;;;;;;6208050;23;20021;-70
2022/09/26 00:58:20;;;;;;;4.93;1.20;;;12.10;99.90;;;;;;6209410;23;20819;-70
2022/09/26 01:00:48;;;;;;;6.70;1.55;;;12.20;99.90;;;;;;6208171;23;20041;-69
2022/09/26 01:03:16;;;;;;;5.97;1.30;;;12.10;99.90;;;;;;6208170;23;20024;-70
2022/09/26 01:05:42;;;;;;;4.80;1.20;;;12.20;99.90;;;;;;6209780;23;20016;-70
2022/09/26 01:08:09;;;;;;;4.90;1.30;;;12.20;99.90;;;;;;6182022;23;20023;-70
2022/09/26 01:10:36;;;;;;;10.07;2.55;;;12.20;99.90;;;;;;6210240;23;20067;-70
2022/09/26 01:13:02;;;;;;;4.70;1.52;;;12.20;99.90;;;;;;6181205;23;20143;-70
2022/09/26 01:15:28;;;;;;;2.85;1.10;;;12.20;99.90;;;;;;6208639;23;20345;-70
2022/09/26 01:17:54;;;;;;;5.38;1.23;;;12.20;99.90;;;;;;6208797;23;20563;-70
2022/09/26 01:20:34;;;;;;;5.18;1.13;;;12.20;99.90;;;;;;6182379;23;20039;-70
2022/09/26 01:23:17;;;;;;;5.65;1.23;;;12.20;99.90;;;;;;6180374;23;20494;-70
2022/09/26 01:26:04;;;;;;;4.45;1.52;;;12.20;99.90;;;;;;6209624;23;20032;-70
2022/09/26 01:28:33;;;;;;;7.15;1.77;;;12.20;99.90;;;;;;6209068;23;20100;-69
2022/09/26 01:31:23;;;;;;;9.63;1.60;;;12.20;99.90;;;;;;6208485;23;20424;-69
2022/09/26 01:34:16;;;;;;;6.53;1.45;;;12.20;99.90;;;;;;6181613;23;20032;-69
2022/09/26 01:37:18;;;;;;;3.53;1.52;;;12.20;99.90;;;;;;6182518;23;20159;-70
2022/09/26 01:40:23;;;;;;;5.63;1.60;;;12.20;99.90;;;;;;6161070;23;20477;-69
2022/09/26 01:43:15;;;;;;;5.03;1.70;;;12.20;99.90;;;;;;6133578;23;20112;-69
2022/09/26 01:46:01;;;;;;;10.65;2.10;;;12.20;99.90;;;;;;6208182;23;20024;-69
2022/09/26 01:48:41;;;;;;;5.95;1.73;;;12.20;99.90;;;;;;6207877;23;20055;-69
2022/09/26 01:51:32;;;;;;;10.18;2.53;;;12.10;99.90;;;;;;6208200;23;20456;-69
2022/09/26 01:54:10;;;;;;;5.38;1.88;;;12.10;99.90;;;;;;6208524;23;20020;-70
2022/09/26 01:56:38;;;;;;;8.38;2.60;;;12.10;99.90;;;;;;6182338;23;20091;-68
2022/09/26 01:59:20;;;;;;;6.50;1.85;;;12.10;99.90;;;;;;6182004;23;20018;-68
2022/09/26 02:01:49;;;;;;;5.25;1.92;;;12.10;99.90;;;;;;6181487;23;20039;-68
2022/09/26 02:04:24;;;;;;;6.32;2.15;;;12.10;99.90;;;;;;6207039;23;20074;-69
2022/09/26 02:06:49;;;;;;;5.75;2.20;;;12.10;99.90;;;;;;6209494;23;20020;-69
2022/09/26 02:09:28;;;;;;;5.22;2.08;;;12.10;99.90;;;;;;6181837;23;20498;-69
2022/09/26 02:11:58;;;;;;;5.43;2.10;;;12.10;99.90;;;;;;6181731;23;20008;-68
2022/09/26 02:14:31;;;;;;;7.90;2.20;;;12.00;99.90;;;;;;6209029;23;20048;-68
2022/09/26 02:17:21;;;;;;;5.07;2.00;;;12.00;99.90;;;;;;6181620;23;20012;-67
2022/09/26 02:20:09;;;;;;;8.40;2.47;;;12.00;99.90;;;;;;6208249;23;20040;-68
2022/09/26 02:22:34;;;;;;;6.15;2.40;;;12.00;99.90;;;;;;6208025;23;20047;-68
2022/09/26 02:25:02;;;;;;;9.02;3.10;;;12.00;99.90;;;;;;6182179;23;20017;-68
2022/09/26 02:27:28;;;;;;;14.02;3.30;;;12.00;99.90;;;;;;6209099;23;20071;-68
2022/09/26 02:29:54;;;;;;;8.85;2.90;;;12.10;99.90;;;;;;6181452;23;20021;-68
2022/09/26 02:32:25;;;;;;;6.30;2.58;;;12.00;99.90;;;;;;6206952;23;20070;-68
2022/09/26 02:34:53;;;;;;;6.53;2.28;;;12.00;99.90;;;;;;6208386;23;20076;-68
2022/09/26 02:37:20;;;;;;;6.80;2.53;;;12.00;99.90;;;;;;6181694;23;20020;-69
2022/09/26 02:39:48;;;;;;;4.05;2.60;;;12.00;99.90;;;;;;6207749;23;20092;-69
2022/09/26 02:42:45;;;;;;;8.93;2.97;;;12.00;99.90;;;;;;6208224;23;20062;-69
2022/09/26 02:45:27;;;;;;;8.10;2.90;;;12.10;99.90;;;;;;6149143;23;20032;-69
2022/09/26 02:48:01;;;;;;;6.35;2.47;;;12.10;99.90;;;;;;6208194;23;20603;-69
2022/09/26 02:50:51;;;;;;;8.15;2.63;;;12.10;99.90;;;;;;6207558;23;20438;-69
2022/09/26 02:53:23;;;;;;;4.30;2.25;;;12.10;99.90;;;;;;6208140;23;20030;-69
2022/09/26 02:56:24;;;;;;;9.35;3.33;;;12.00;99.90;;;;;;6208983;23;20087;-69
2022/09/26 02:59:05;;;;;;;8.27;2.40;;;12.10;99.90;;;;;;6080915;23;20052;-69
2022/09/26 03:02:02;;;;;;;5.90;2.53;;;12.00;99.90;;;;;;6180639;23;20016;-69
2022/09/26 03:04:28;;;;;;;11.77;2.90;;;12.10;99.90;;;;;;6207639;23;20075;-69
2022/09/26 03:06:59;;;;;;;5.20;2.20;;;12.10;99.90;;;;;;6181897;23;20467;-69
2022/09/26 03:09:26;;;;;;;7.85;2.60;;;12.10;99.90;;;;;;6207241;23;20024;-69
2022/09/26 03:11:54;;;;;;;4.03;2.22;;;12.10;99.90;;;;;;6208443;23;20453;-69
2022/09/26 03:14:22;;;;;;;7.40;3.05;;;12.10;99.90;;;;;;6180470;23;20672;-69
2022/09/26 03:16:50;;;;;;;10.10;2.90;;;12.10;99.90;;;;;;6208617;23;20016;-69
2022/09/26 03:19:17;;;;;;;8.52;3.10;;;12.10;99.90;;;;;;6180596;23;20104;-68
2022/09/26 03:21:44;;;;;;;7.63;3.25;;;12.20;99.90;;;;;;6180188;23;20021;-69
2022/09/26 03:24:11;;;;;;;13.10;2.75;;;12.10;99.90;;;;;;6207753;23;20023;-69
2022/09/26 03:26:37;;;;;;;7.03;3.40;;;12.10;99.90;;;;;;6182189;23;20651;-69
2022/09/26 03:29:03;;;;;;;11.88;3.50;;;12.20;99.90;;;;;;6181025;23;20021;-69
2022/09/26 03:31:30;;;;;;;11.27;3.58;;;12.20;99.90;;;;;;6180237;23;20070;-69
2022/09/26 03:33:55;;;;;;;12.82;3.35;;;12.20;99.90;;;;;;6208584;23;20016;-70
2022/09/26 03:36:22;;;;;;;12.40;3.45;;;12.20;99.90;;;;;;6180461;23;20098;-69
2022/09/26 03:38:48;;;;;;;4.72;3.20;;;12.20;99.90;;;;;;6207497;23;20494;-69
2022/09/26 03:41:13;;;;;;;7.35;3.20;;;12.20;99.90;;;;;;6206917;23;20025;-69
2022/09/26 03:43:42;;;;;;;10.68;3.90;;;12.30;99.90;;;;;;6181446;23;20090;-69
2022/09/26 03:46:10;;;;;;;8.73;3.45;;;12.20;99.90;;;;;;6178399;23;20040;-68
2022/09/26 03:48:37;;;;;;;10.63;3.35;;;12.30;99.90;;;;;;6208042;23;20075;-69
2022/09/26 03:51:08;;;;;;;7.03;3.30;;;12.30;99.90;;;;;;6180444;23;20084;-69
2022/09/26 03:53:36;;;;;;;8.32;3.03;;;12.30;99.90;;;;;;6208337;23;20025;-69
2022/09/26 03:56:04;;;;;;;8.75;3.20;;;12.30;99.90;;;;;;6180670;23;20020;-69
2022/09/26 03:58:29;;;;;;;7.82;2.78;;;12.30;99.90;;;;;;6181567;23;20017;-69
2022/09/26 04:01:02;;;;;;;6.45;2.70;;;12.20;99.90;;;;;;6206932;23;20012;-69
2022/09/26 04:03:30;;;;;;;9.48;2.63;;;12.30;99.90;;;;;;6207833;23;20086;-70
2022/09/26 04:05:56;;;;;;;6.88;2.42;;;12.30;99.90;;;;;;6181256;23;20043;-69
2022/09/26 04:08:21;;;;;;;6.63;2.67;;;12.30;99.90;;;;;;6182306;23;20472;-69
2022/09/26 04:10:47;;;;;;;4.88;2.53;;;12.30;99.90;;;;;;6182158;23;20056;-69
2022/09/26 04:13:13;;;;;;;5.50;2.50;;;12.30;99.90;;;;;;6210036;23;20035;-69
2022/09/26 04:15:38;;;;;;;7.53;3.22;;;12.30;99.90;;;;;;6209265;23;20384;-69
2022/09/26 04:18:04;;;;;;;7.13;2.45;;;12.30;99.90;;;;;;6182415;23;20016;-69
2022/09/26 04:20:30;;;;;;;10.30;3.00;;;12.30;99.90;;;;;;6209606;23;20025;-69
2022/09/26 04:22:56;;;;;;;7.47;2.88;;;12.30;99.90;;;;;;6183395;23;20147;-68
2022/09/26 04:25:22;;;;;;;5.50;2.80;;;12.30;99.90;;;;;;6208288;23;20516;-69
2022/09/26 04:27:48;;;;;;;8.55;2.55;;;12.30;99.90;;;;;;6211166;23;20021;-70
2022/09/26 04:30:13;;;;;;;6.10;2.47;;;12.30;99.90;;;;;;6181261;23;20485;-68
2022/09/26 04:32:39;;;;;;;5.63;2.40;;;12.20;99.90;;;;;;6209434;23;20012;-69
2022/09/26 04:35:05;;;;;;;6.07;2.35;;;12.20;99.90;;;;;;6182072;23;20021;-68
2022/09/26 04:37:33;;;;;;;8.30;2.50;;;12.20;99.90;;;;;;6209630;23;20047;-68
2022/09/26 04:39:59;;;;;;;10.23;2.97;;;12.20;99.90;;;;;;6181769;23;20025;-68
2022/09/26 04:42:24;;;;;;;6.63;2.60;;;12.20;99.90;;;;;;6181605;23;20012;-68
2022/09/26 04:44:50;;;;;;;8.32;3.13;;;12.20;99.90;;;;;;6183064;23;20024;-68
2022/09/26 04:47:16;;;;;;;11.70;3.28;;;12.20;99.90;;;;;;6208179;23;20172;-68
2022/09/26 04:49:42;;;;;;;11.07;3.53;;;12.10;99.90;;;;;;6209568;23;20016;-69
2022/09/26 04:52:07;;;;;;;5.53;3.25;;;12.10;99.90;;;;;;6208618;23;20020;-68
2022/09/26 04:54:36;;;;;;;11.38;3.55;;;12.10;99.90;;;;;;6209927;23;20039;-68
2022/09/26 04:57:03;;;;;;;8.30;3.88;;;12.10;99.90;;;;;;6207657;23;20023;-68
2022/09/26 04:59:28;;;;;;;9.13;4.05;;;12.10;99.90;;;;;;6209835;23;20017;-67
2022/09/26 05:01:54;;;;;;;8.32;3.72;;;12.10;99.90;;;;;;6155748;23;20021;-67
2022/09/26 05:04:21;;;;;;;8.02;3.70;;;12.10;99.90;;;;;;6208352;23;20025;-66
2022/09/26 05:06:47;;;;;;;9.32;3.95;;;12.00;99.90;;;;;;6182507;23;20020;-67
2022/09/26 05:09:12;;;;;;;9.10;3.97;;;12.10;99.90;;;;;;6179116;23;20017;-67
2022/09/26 05:11:38;;;;;;;9.45;4.47;;;12.10;99.90;;;;;;6209600;23;20035;-68
2022/09/26 05:14:04;;;;;;;8.43;4.57;;;12.10;99.90;;;;;;6182043;23;20526;-68
2022/09/26 05:16:29;;;;;;;6.95;3.88;;;12.00;99.90;;;;;;6207881;23;20017;-68
2022/09/26 05:18:55;;;;;;;8.77;4.53;;;12.10;99.90;;;;;;6209329;23;20348;-70
2022/09/26 05:21:21;;;;;;;9.48;4.05;;;12.10;99.90;;;;;;6207523;23;20357;-69
2022/09/26 05:26:44;;;;;;;13.77;4.40;;;12.00;99.90;;;;;;6208843;23;20016;-68
2022/09/26 05:29:10;;;;;;;7.78;4.25;;;12.00;99.90;;;;;;6208543;23;20017;-68
2022/09/26 05:31:36;;;;;;;7.30;3.40;;;12.10;99.90;;;;;;6181393;23;20155;-68
2022/09/26 05:34:12;;;;;;;9.52;3.50;;;12.10;99.90;;;;;;6206911;23;20059;-68
2022/09/26 05:36:38;;;;;;;6.40;3.35;;;12.00;99.90;;;;;;6207997;23;20012;-68
2022/09/26 05:40:55;;;;;;;8.20;3.00;;;12.10;99.90;;;;;;6207177;23;20023;-68
2022/09/26 05:41:52;;;;;;;9.20;3.35;;;12.00;99.90;;;;;;6207672;23;20016;-68
2022/09/26 05:44:18;;;;;;;8.55;3.28;;;12.00;99.90;;;;;;6154953;23;20032;-67
2022/09/26 05:46:44;;;;;;;8.77;3.17;;;12.10;99.90;;;;;;6181100;23;20100;-68
2022/09/26 05:49:11;;;;;;;8.45;3.90;;;12.00;99.90;;;;;;6206482;23;20025;-68
2022/09/26 05:51:40;;;;;;;6.50;3.28;;;12.00;99.90;;;;;;6181458;23;20496;-70
2022/09/26 05:54:06;;;;;;;6.72;3.20;;;12.00;99.90;;;;;;6205895;23;20024;-67
2022/09/26 05:56:33;;;;;;;7.38;3.10;;;12.00;99.90;;;;;;6206279;23;20522;-68
2022/09/26 05:58:59;;;;;;;10.93;3.65;;;12.00;99.90;;;;;;6207087;23;20020;-68
2022/09/26 06:01:24;;;;;;;8.05;4.07;;;12.00;99.90;;;;;;6179847;23;20092;-68
2022/09/26 06:03:50;;;;;;;8.07;3.33;;;12.00;99.90;;;;;;6179356;23;20174;-68
2022/09/26 06:06:18;;;;;;;6.45;3.00;;;12.00;99.90;;;;;;6179583;23;20479;-68
2022/09/26 06:08:44;;;;;;;9.32;3.00;;;11.90;99.90;;;;;;6180707;23;20024;-66
2022/09/26 06:11:13;;;;;;;7.80;3.78;;;12.00;99.90;;;;;;6207289;23;20025;-66
2022/09/26 06:13:42;;;;;;;9.50;3.80;;;12.00;99.90;;;;;;6209056;23;20107;-66
2022/09/26 06:16:12;;;;;;;8.63;3.40;;;12.00;99.90;;;;;;6206459;23;20027;-68
2022/09/26 06:18:38;;;;;;;6.72;3.38;;;12.00;99.90;;;;;;6207543;23;20020;-67
2022/09/26 06:21:06;;;;;;;10.70;3.42;;;12.00;99.90;;;;;;6180552;23;20468;-68
2022/09/26 06:23:35;;;;;;;8.07;3.40;;;12.00;99.90;;;;;;6207237;23;20024;-68
2022/09/26 06:26:02;;;;;;;11.38;3.75;;;11.90;99.90;;;;;;6206662;23;20324;-70
2022/09/26 06:28:29;;;;;;;8.00;3.78;;;12.00;99.90;;;;;;6207557;23;20016;-68
2022/09/26 06:30:55;;;;;;;9.23;3.72;;;12.00;99.90;;;;;;6179910;23;20016;-68
2022/09/26 06:33:21;;;;;;;10.38;3.70;;;12.00;99.90;;;;;;6208061;23;20028;-69
2022/09/26 06:35:47;;;;;;;7.45;3.78;;;12.00;99.90;;;;;;6207753;23;20027;-68
2022/09/26 06:38:18;;;;;;;9.77;3.72;;;12.00;99.90;;;;;;6178862;23;20119;-68
2022/09/26 06:40:43;;;;;;;8.68;4.45;;;12.00;99.90;;;;;;6206829;23;20093;-69
2022/09/26 06:43:09;;;;;;;10.85;4.82;;;12.10;99.90;;;;;;6206747;23;20021;-68
2022/09/26 06:45:35;;;;;;;8.27;3.88;;;12.00;99.90;;;;;;6205750;23;20024;-67
2022/09/26 06:48:01;;;;;;;10.40;4.97;;;12.10;99.90;;;;;;6209956;23;20024;-67
2022/09/26 06:50:27;;;;;;;8.02;3.88;;;12.10;99.90;;;;;;6209110;23;20025;-66
2022/09/26 06:52:52;;;;;;;7.97;3.50;;;12.00;99.90;;;;;;6207899;23;20012;-67
2022/09/26 06:55:18;;;;;;;7.57;3.50;;;12.10;99.90;;;;;;6180991;23;20028;-67
2022/09/26 06:57:43;;;;;;;7.00;3.58;;;12.10;99.90;;;;;;6207430;23;20096;-67
2022/09/26 07:00:12;;;;;;;7.00;3.53;;;12.10;99.90;;;;;;6206563;23;20029;-67
2022/09/26 07:02:48;;;;;;;9.15;3.55;;;12.10;99.90;;;;;;6207525;23;20017;-68
2022/09/26 07:05:14;;;;;;;7.93;3.47;;;12.10;99.90;;;;;;6182408;23;20040;-69
2022/09/26 07:07:41;;;;;;;8.40;3.88;;;12.10;99.90;;;;;;6209244;23;20035;-69
2022/09/26 07:10:07;;;;;;;8.70;3.35;;;12.20;99.90;;;;;;6182343;23;20050;-68
2022/09/26 07:12:36;;;;;;;8.57;3.75;;;12.10;99.90;;;;;;6209373;23;20342;-69
2022/09/26 07:15:03;;;;;;;6.60;3.17;;;12.10;99.90;;;;;;6207221;23;20052;-69
2022/09/26 07:17:28;;;;;;;6.78;3.03;;;12.20;99.90;;;;;;6207686;23;20012;-69
2022/09/26 07:19:54;;;;;;;8.00;3.20;;;12.20;99.90;;;;;;6208652;23;20027;-68
2022/09/26 07:22:20;;;;;;;13.20;3.88;;;12.20;99.90;;;;;;6207108;23;20025;-68
2022/09/26 07:24:49;;;;;;;10.80;3.70;;;12.20;99.90;;;;;;6206157;23;20046;-69
2022/09/26 07:27:16;;;;;;;8.57;3.83;;;12.10;99.90;;;;;;6207234;23;20388;-68
2022/09/26 07:29:44;;;;;;;10.27;3.15;;;12.10;99.90;;;;;;6208409;23;20457;-69
2022/09/26 07:32:10;;;;;;;8.18;2.72;;;12.20;99.90;;;;;;6207086;23;20095;-69
2022/09/26 07:34:36;;;;;;;9.50;3.70;;;12.20;99.90;;;;;;6208303;23;20028;-69
2022/09/26 07:37:02;;;;;;;6.28;2.72;;;12.20;99.90;;;;;;6208014;23;20536;-70
2022/09/26 07:39:27;;;;;;;6.88;3.42;;;12.20;99.90;;;;;;6208954;23;20058;-69
2022/09/26 07:41:53;;;;;;;9.13;4.30;;;12.30;99.90;;;;;;6211223;23;20024;-70
2022/09/26 07:44:18;;;;;;;8.27;3.13;;;12.20;99.90;;;;;;6209643;23;20048;-70
2022/09/26 07:52:13;;;;;;;5.95;2.30;;;12.40;99.90;;;;;;6209031;23;20028;-70
2022/09/26 07:54:40;;;;;;;11.18;2.95;;;12.40;99.90;;;;;;6209160;23;20119;-70
2022/09/26 07:57:06;;;;;;;5.03;2.35;;;12.50;99.90;;;;;;6182183;23;20527;-71
2022/09/26 07:59:34;;;;;;;15.50;3.65;;;12.50;99.90;;;;;;6183337;23;20091;-69
2022/09/26 08:02:01;;;;;;;10.68;2.63;;;12.50;99.90;;;;;;6156580;23;20013;-71
2022/09/26 08:04:28;;;;;;;6.65;2.95;;;12.60;99.90;;;;;;6182188;23;20021;-70
2022/09/26 08:06:55;;;;;;;8.10;2.75;;;12.60;99.90;;;;;;6210226;23;20084;-70
2022/09/26 08:09:21;;;;;;;8.93;3.08;;;12.60;99.90;;;;;;6209336;23;20021;-70
2022/09/26 08:11:46;;;;;;;8.20;2.65;;;12.60;99.90;;;;;;6181800;23;20021;-70
2022/09/26 08:14:13;;;;;;;8.32;3.35;;;12.70;99.90;;;;;;6209847;23;20021;-70
2022/09/26 08:16:40;;;;;;;8.15;2.75;;;12.70;99.90;;;;;;6181663;23;20076;-70
2022/09/26 08:19:07;;;;;;;11.05;2.67;;;12.70;99.90;;;;;;6182862;23;20013;-70
2022/09/26 08:21:33;;;;;;;10.65;2.85;;;12.70;99.90;;;;;;6209534;23;20049;-70
2022/09/26 08:24:00;;;;;;;9.55;2.92;;;12.80;99.90;;;;;;6183358;23;20547;-70
2022/09/26 08:26:25;;;;;;;8.48;3.40;;;12.80;99.90;;;;;;6209040;23;20079;-70
2022/09/26 08:28:52;;;;;;;6.65;2.72;;;12.70;99.90;;;;;;6209821;23;20012;-70
2022/09/26 08:31:18;;;;;;;7.43;2.75;;;12.80;99.90;;;;;;6208141;23;20050;-71
2022/09/26 08:33:44;;;;;;;9.38;3.08;;;12.90;99.90;;;;;;6182406;23;20021;-70
2022/09/26 08:36:11;;;;;;;7.55;2.88;;;13.00;99.90;;;;;;6182550;23;20009;-71
2022/09/26 08:38:38;;;;;;;7.50;2.67;;;13.00;99.90;;;;;;6209493;23;20027;-70
2022/09/26 08:41:19;;;;;;;10.82;3.13;;;13.10;99.90;;;;;;6181843;23;20089;-71
2022/09/26 08:43:59;;;;;;;6.95;2.95;;;13.20;99.90;;;;;;6183680;23;20032;-70
2022/09/26 08:46:42;;;;;;;6.43;2.78;;;13.20;99.90;;;;;;6207560;23;20020;-71
2022/09/26 08:49:43;;;;;;;9.43;3.47;;;13.10;99.90;;;;;;6209068;23;20024;-71
2022/09/26 08:52:37;;;;;;;6.50;3.25;;;13.10;99.90;;;;;;6207631;23;20398;-71
2022/09/26 08:55:25;;;;;;;7.82;3.17;;;13.00;99.90;;;;;;6209037;23;20020;-71
2022/09/26 08:57:59;;;;;;;7.93;3.25;;;12.80;99.90;;;;;;6209016;23;20020;-70
2022/09/26 09:00:27;;;;;;;7.85;3.47;;;12.70;99.90;;;;;;6206838;23;20611;-70
2022/09/26 09:03:10;;;;;;;8.18;4.40;;;12.60;99.90;;;;;;6183165;23;20016;-70
2022/09/26 09:05:41;;;;;;;12.13;4.50;;;12.60;99.90;;;;;;6183324;23;20044;-71
2022/09/26 09:08:40;;;;;;;9.93;4.38;;;12.60;99.90;;;;;;6207596;23;20021;-71
2022/09/26 09:11:12;;;;;;;8.57;4.20;;;12.50;99.90;;;;;;6209015;23;20025;-70
2022/09/26 09:13:56;;;;;;;8.90;4.47;;;12.50;99.90;;;;;;6208666;23;20044;-71
2022/09/26 09:16:50;;;;;;;8.45;4.65;;;12.50;99.90;;;;;;6207911;23;20054;-71
2022/09/26 09:19:49;;;;;;;10.95;4.70;;;12.50;99.90;;;;;;6207451;23;20108;-71
2022/09/26 09:22:33;;;;;;;8.20;4.80;;;12.50;99.90;;;;;;6181264;23;20114;-71
2022/09/26 09:25:04;;;;;;;8.27;4.18;;;12.50;99.90;;;;;;6181585;23;20021;-71
2022/09/26 09:27:41;;;;;;;8.90;4.97;;;12.40;99.90;;;;;;6210304;23;20039;-71
2022/09/26 09:30:51;;;;;;;11.00;4.78;;;12.30;99.90;;;;;;6207067;23;20471;-70
2022/09/26 09:33:36;;;;;;;10.73;5.07;;;12.30;99.90;;;;;;6058213;23;20033;-70
2022/09/26 09:36:09;;;;;;;10.40;4.90;;;12.30;99.90;;;;;;6195410;23;20028;-70
2022/09/26 09:38:39;;;;;;;12.00;5.50;;;12.30;99.90;;;;;;6182675;23;20043;-69
2022/09/26 09:41:15;;;;;;;7.97;4.47;;;12.40;99.90;;;;;;6179993;23;20131;-70
2022/09/26 09:43:54;;;;;;;11.45;5.07;;;12.30;99.90;;;;;;6180381;23;20016;-71
2022/09/26 09:46:27;;;;;;;10.55;5.05;;;12.40;99.90;;;;;;6180222;23;20024;-70
2022/09/26 09:49:18;;;;;;;11.63;5.65;;;12.40;99.90;;;;;;6182432;23;20100;-70
2022/09/26 09:52:05;;;;;;;13.27;5.30;;;12.40;99.90;;;;;;6208366;23;20444;-70
2022/09/26 09:55:00;;;;;;;7.65;4.93;;;12.40;99.90;;;;;;6208541;23;20020;-70
2022/09/26 09:57:47;;;;;;;10.10;4.70;;;12.40;99.90;;;;;;6208748;23;20614;-70
2022/09/26 10:00:21;;;;;;;7.78;5.10;;;12.30;99.90;;;;;;6179068;23;20095;-69
2022/09/26 10:03:23;;;;;;;9.18;5.60;;;12.30;99.90;;;;;;6209071;23;20016;-69
2022/09/26 10:05:55;;;;;;;11.75;5.55;;;12.30;99.90;;;;;;6208644;23;20075;-70
2022/09/26 10:08:30;;;;;;;15.52;5.72;;;12.30;99.90;;;;;;6209382;23;20020;-69
2022/09/26 10:10:55;;;;;;;10.82;5.45;;;12.20;99.90;;;;;;6181897;23;20024;-71
2022/09/26 10:13:24;;;;;;;10.80;5.57;;;12.20;99.90;;;;;;6182236;23;20024;-71
2022/09/26 10:16:14;;;;;;;8.40;5.60;;;12.10;99.90;;;;;;6181931;23;20016;-69
2022/09/26 10:18:59;;;;;;;8.80;6.18;;;12.10;99.90;;;;;;6209291;23;20035;-68
2022/09/26 10:21:31;;;;;;;10.20;5.82;;;12.20;99.90;;;;;;6181750;23;20024;-67
2022/09/26 10:23:57;;;;;;;9.20;6.63;;;12.10;99.90;;;;;;6182171;23;20036;-68
2022/09/26 10:26:33;;;;;;;10.95;6.40;;;12.10;99.90;;;;;;6180188;23;20051;-68
2022/09/26 10:29:03;;;;;;;13.27;6.43;;;12.00;99.90;;;;;;6210313;23;20016;-69
2022/09/26 10:31:37;;;;;;;9.68;6.95;;;12.10;99.90;;;;;;6207416;23;20011;-68
2022/09/26 10:34:22;;;;;;;13.27;7.32;;;12.10;99.90;;;;;;6182901;23;20027;-69
2022/09/26 10:36:48;;;;;;;11.98;7.30;;;12.10;99.90;;;;;;6208055;23;20023;-67
2022/09/26 10:42:18;;;;;;;11.25;7.43;;;12.20;99.90;;;;;;6208367;23;20016;-68
2022/09/26 10:44:46;;;;;;;15.35;7.97;;;12.20;99.90;;;;;;6182461;23;20093;-68
2022/09/26 10:47:25;;;;;;;11.13;7.20;;;12.20;99.90;;;;;;6209202;23;20031;-67
2022/09/26 10:50:11;;;;;;;11.20;7.22;;;12.20;99.90;;;;;;6209577;23;20314;-73
2022/09/26 10:52:42;;;;;;;12.52;9.80;;;12.30;99.90;;;;;;6208180;23;20046;-68
2022/09/26 10:55:18;;;;;;;10.10;5.97;;;12.40;99.90;;;;;;6181036;23;20012;-69
2022/09/26 10:57:48;;;;;;;9.95;6.43;;;12.40;99.90;;;;;;6208047;23;20028;-69
2022/09/26 11:00:38;;;;;;;8.10;7.30;;;12.50;99.90;;;;;;6179649;23;20116;-69
2022/09/26 11:03:10;;;;;;;7.78;6.22;;;12.50;99.90;;;;;;6208542;23;20515;-71
2022/09/26 11:08:29;;;;;;;9.77;7.65;;;12.50;99.90;;;;;;6207695;23;20376;-68
2022/09/26 11:11:01;;;;;;;12.60;8.13;;;12.50;99.90;;;;;;6208562;23;20017;-68
2022/09/26 11:13:31;;;;;;;7.10;5.88;;;12.60;99.90;;;;;;6208080;23;20017;-68
2022/09/26 11:16:00;;;;;;;6.72;5.70;;;12.60;99.90;;;;;;6180462;23;20023;-68
2022/09/26 11:19:07;;;;;;;7.95;5.97;;;12.60;99.90;;;;;;6208281;23;20040;-68
2022/09/26 11:21:48;;;;;;;8.82;5.35;;;12.80;99.90;;;;;;6206588;23;20099;-68
2022/09/26 11:24:45;;;;;;;9.70;4.95;;;12.80;99.90;;;;;;6207816;23;20043;-69
2022/09/26 11:27:29;;;;;;;7.28;4.85;;;12.80;99.90;;;;;;6177597;23;20139;-68
2022/09/26 11:30:13;;;;;;;11.52;6.55;;;12.80;99.90;;;;;;6181812;23;20446;-68
2022/09/26 11:32:42;;;;;;;8.27;6.47;;;12.90;99.90;;;;;;6208432;23;20483;-68
2022/09/26 11:35:16;;;;;;;8.57;7.07;;;13.10;99.90;;;;;;6207114;23;20108;-68
2022/09/26 11:38:07;;;;;;;9.63;6.35;;;13.30;99.90;;;;;;6180527;23;20103;-68
2022/09/26 11:40:45;;;;;;;8.70;6.25;;;13.40;99.90;;;;;;6207049;23;20518;-68
2022/09/26 11:43:17;;;;;;;8.27;5.25;;;13.50;99.90;;;;;;6181370;23;20028;-68
2022/09/26 11:46:07;;;;;;;8.55;4.90;;;13.60;99.90;;;;;;6206887;23;20019;-68
2022/09/26 11:48:59;;;;;;;7.85;5.32;;;13.60;99.90;;;;;;6181002;23;20017;-67
2022/09/26 11:52:02;;;;;;;9.68;6.35;;;13.60;99.90;;;;;;6180918;23;20076;-69
2022/09/26 11:54:44;;;;;;;8.70;5.77;;;13.70;99.90;;;;;;6205312;23;20024;-69
2022/09/26 11:57:35;;;;;;;10.18;5.45;;;13.90;99.90;;;;;;6179524;23;20021;-67
2022/09/26 12:00:05;;;;;;;7.00;4.85;;;13.90;99.90;;;;;;6206669;23;20039;-71
2022/09/26 12:02:59;;;;;;;7.32;4.60;;;14.00;99.90;;;;;;6208709;23;20094;-67
2022/09/26 12:05:29;;;;;;;8.90;4.43;;;14.10;99.90;;;;;;6180233;23;20008;-67
2022/09/26 12:08:21;;;;;;;8.35;4.68;;;14.20;99.90;;;;;;6208451;23;20024;-67
2022/09/26 12:10:49;;;;;;;7.22;4.65;;;14.30;99.90;;;;;;6124390;23;20024;-68
2022/09/26 12:13:33;;;;;;;9.75;4.45;;;14.40;99.90;;;;;;6181318;23;20099;-68
2022/09/26 12:16:20;;;;;;;7.10;3.97;;;14.60;99.90;;;;;;6207698;23;20040;-67
2022/09/26 12:18:58;;;;;;;5.93;3.40;;;14.60;99.90;;;;;;6208321;23;20734;-68
2022/09/26 12:22:27;;;;;;;5.72;3.22;;;14.50;99.90;;;;;;6180258;23;20024;-68
2022/09/26 12:24:56;;;;;;;5.65;3.70;;;14.50;99.90;;;;;;6207050;23;20027;-68
2022/09/26 12:27:58;;;;;;;6.05;3.15;;;14.50;99.90;;;;;;6180820;23;20020;-68
2022/09/26 12:30:36;;;;;;;8.57;3.30;;;14.80;99.90;;;;;;6182101;23;20523;-69
2022/09/26 12:33:43;;;;;;;8.27;3.97;;;14.90;99.90;;;;;;6183021;23;20012;-70
2022/09/26 12:36:20;;;;;;;5.78;3.50;;;14.80;99.90;;;;;;6208902;23;20020;-67
2022/09/26 12:38:48;;;;;;;13.18;6.82;;;14.70;99.90;;;;;;6209515;23;20147;-68
2022/09/26 12:41:50;;;;;;;17.42;9.18;;;14.50;99.90;;;;;;6183083;23;20440;-68
2022/09/26 12:44:37;;;;;;;14.13;8.63;;;14.50;99.90;;;;;;6180499;23;20124;-67
2022/09/26 12:47:09;;;;;;;8.40;4.25;;;14.40;99.90;;;;;;6207834;23;20101;-68
2022/09/26 12:50:04;;;;;;;8.32;4.20;;;14.40;99.90;;;;;;6207879;23;20040;-71
2022/09/26 12:52:35;;;;;;;9.10;4.55;;;14.40;99.90;;;;;;6207508;23;20017;-66
2022/09/26 12:55:20;;;;;;;15.13;4.47;;;14.50;99.90;;;;;;6207388;23;20034;-69
2022/09/26 12:58:01;;;;;;;7.43;2.78;;;14.60;99.90;;;;;;6208896;23;20020;-67
2022/09/26 13:00:44;;;;;;;5.72;2.08;;;14.70;99.90;;;;;;6205935;23;20035;-68
2022/09/26 13:03:48;;;;;;;9.25;1.80;;;14.90;99.90;;;;;;6181595;23;20012;-68
2022/09/26 13:06:40;;;;;;;6.63;1.85;;;14.90;99.90;;;;;;6208462;23;20032;-67
2022/09/26 13:09:23;;;;;;;5.13;1.70;;;15.00;99.90;;;;;;6208664;23;20063;-67
2022/09/26 13:11:54;;;;;;;14.75;4.38;;;15.00;99.90;;;;;;6207175;23;20091;-69
2022/09/26 13:14:28;;;;;;;8.35;1.90;;;14.90;99.90;;;;;;6208576;23;20044;-69
2022/09/26 13:17:19;;;;;;;13.63;1.88;;;14.90;99.90;;;;;;6181382;23;20016;-68
2022/09/26 13:19:51;;;;;;;5.35;1.50;;;15.00;99.90;;;;;;6182084;23;20067;-69
2022/09/26 13:23:08;;;;;;;6.30;1.70;;;15.10;99.90;;;;;;6206895;23;20017;-69
2022/09/26 13:25:55;;;;;;;10.18;2.45;;;15.10;99.90;;;;;;6124989;23;20071;-70
2022/09/26 13:28:47;;;;;;;10.35;2.15;;;15.10;99.90;;;;;;6208026;23;20067;-69
2022/09/26 13:31:21;;;;;;;12.85;2.38;;;15.10;99.90;;;;;;6204736;23;20016;-69
2022/09/26 13:34:14;;;;;;;9.35;2.53;;;15.10;99.90;;;;;;6181823;23;20031;-69